createdAt,value
2023-05-21T00:00:35.393Z,101287.00
2023-05-21T00:03:13.799Z,101289.03
2023-05-21T00:05:50.174Z,101278.25
2023-05-21T00:08:23.914Z,101275.22
2023-05-21T00:10:57.428Z,101288.38
2023-05-21T00:13:30.729Z,101284.00
2023-05-21T00:16:04.190Z,101271.38
2023-05-21T00:18:39.222Z,101274.06
2023-05-21T00:21:14.060Z,101274.25
2023-05-21T00:23:48.140Z,101264.84
2023-05-21T00:26:21.695Z,101257.06
2023-05-21T00:28:54.997Z,101264.47
2023-05-21T00:31:28.380Z,101249.31
2023-05-21T00:34:01.637Z,101256.06
2023-05-21T00:36:35.023Z,101253.38
2023-05-21T00:39:08.851Z,101248.00
2023-05-21T00:41:43.087Z,101245.97
2023-05-21T00:44:18.387Z,101248.00
2023-05-21T00:46:53.609Z,101245.63
2023-05-21T00:49:27.314Z,101240.41
2023-05-21T00:52:02.419Z,101236.53
2023-05-21T00:54:36.220Z,101236.38
2023-05-21T00:57:10.654Z,101235.19
2023-05-21T00:59:44.488Z,101229.81
2023-05-21T01:02:18.827Z,101228.50
2023-05-21T01:04:52.285Z,101228.50
2023-05-21T01:07:25.588Z,101224.81
2023-05-21T01:09:59.082Z,101229.34
2023-05-21T01:12:34.041Z,101223.44
2023-05-21T01:15:10.707Z,101220.78
2023-05-21T01:17:45.853Z,101218.94
2023-05-21T01:20:21.266Z,101224.81
2023-05-21T01:22:58.285Z,101220.78
2023-05-21T01:25:31.901Z,101223.47
2023-05-21T01:28:05.171Z,101219.94
2023-05-21T01:30:40.408Z,101224.31
2023-05-21T01:33:27.044Z,101222.81
2023-05-21T01:36:15.824Z,101219.78
2023-05-21T01:38:58.830Z,101214.56
2023-05-21T01:41:39.429Z,101214.91
2023-05-21T01:44:18.374Z,101207.84
2023-05-21T01:46:52.543Z,101215.09
2023-05-21T01:49:26.841Z,101215.75
2023-05-21T01:52:02.504Z,101205.34
2023-05-21T01:54:35.787Z,101210.03
2023-05-21T01:57:09.134Z,101203.66
2023-05-21T01:59:44.238Z,101203.66
2023-05-21T02:02:17.862Z,101202.97
2023-05-21T02:04:51.567Z,101202.28
2023-05-21T02:07:24.797Z,101204.81
2023-05-21T02:09:57.771Z,101216.25
2023-05-21T02:12:31.086Z,101211.72
2023-05-21T02:15:04.842Z,101210.53
2023-05-21T02:17:38.831Z,101208.31
2023-05-21T02:20:15.549Z,101208.69
2023-05-21T02:22:50.803Z,101204.31
2023-05-21T02:25:24.327Z,101204.66
2023-05-21T02:27:57.606Z,101206.84
2023-05-21T02:30:30.935Z,101202.97
2023-05-21T02:33:04.287Z,101203.63
2023-05-21T02:35:38.136Z,101207.66
2023-05-21T02:38:13.568Z,101203.63
2023-05-21T02:40:46.974Z,101200.44
2023-05-21T02:43:20.198Z,101206.47
2023-05-21T02:45:53.524Z,101207.66
2023-05-21T02:48:26.801Z,101199.25
2023-05-21T02:51:01.702Z,101199.06
2023-05-21T02:53:35.071Z,101193.34
2023-05-21T02:56:09.130Z,101190.47
2023-05-21T02:58:42.684Z,101192.44
2023-05-21T03:01:16.862Z,101185.09
2023-05-21T03:03:50.528Z,101187.09
2023-05-21T03:06:24.620Z,101191.59
2023-05-21T03:08:57.965Z,101185.25
2023-05-21T03:11:31.292Z,101186.56
2023-05-21T03:14:04.529Z,101187.09
2023-05-21T03:16:38.108Z,101186.75
2023-05-21T03:19:12.263Z,101179.03
2023-05-21T03:21:45.856Z,101179.53
2023-05-21T03:24:19.246Z,101187.41
2023-05-21T03:26:52.564Z,101184.72
2023-05-21T03:29:25.804Z,101175.97
2023-05-21T03:31:59.358Z,101178.84
2023-05-21T03:34:34.478Z,101170.09
2023-05-21T03:37:07.887Z,101167.75
2023-05-21T03:39:41.250Z,101177.19
2023-05-21T03:42:14.680Z,101175.00
2023-05-21T03:44:47.937Z,101171.63
2023-05-21T03:47:21.404Z,101171.94
2023-05-21T03:49:54.764Z,101168.59
2023-05-21T03:52:28.225Z,101173.66
2023-05-21T03:55:01.690Z,101170.59
2023-05-21T03:57:34.926Z,101177.63
2023-05-21T04:00:10.826Z,101177.97
2023-05-21T04:02:44.489Z,101181.50
2023-05-21T04:05:18.104Z,101186.72
2023-05-21T04:07:51.495Z,101188.03
2023-05-21T04:10:24.847Z,101178.97
2023-05-21T04:12:58.180Z,101191.56
2023-05-21T04:15:31.462Z,101183.31
2023-05-21T04:18:04.802Z,101181.97
2023-05-21T04:20:38.361Z,101188.66
2023-05-21T04:23:11.841Z,101187.34
2023-05-21T04:25:45.223Z,101182.31
2023-05-21T04:28:19.953Z,101178.78
2023-05-21T04:30:53.291Z,101182.59
2023-05-21T04:33:26.977Z,101186.63
2023-05-21T04:36:00.748Z,101186.31
2023-05-21T04:38:34.153Z,101188.66
2023-05-21T04:41:10.782Z,101188.66
2023-05-21T04:43:44.941Z,101183.13
2023-05-21T04:46:18.447Z,101191.88
2023-05-21T04:48:52.652Z,101183.63
2023-05-21T04:51:27.215Z,101184.47
2023-05-21T04:54:00.584Z,101185.97
2023-05-21T04:56:33.888Z,101192.88
2023-05-21T04:59:07.282Z,101195.41
2023-05-21T05:01:41.152Z,101184.66
2023-05-21T05:04:14.428Z,101191.53
2023-05-21T05:06:47.726Z,101194.75
2023-05-21T05:09:24.984Z,101181.81
2023-05-21T05:11:58.548Z,101177.13
2023-05-21T05:14:31.577Z,101180.31
2023-05-21T05:17:04.945Z,101180.69
2023-05-21T05:19:38.378Z,101169.25
2023-05-21T05:22:13.606Z,101184.03
2023-05-21T05:24:47.263Z,101181.34
2023-05-21T05:27:20.519Z,101184.41
2023-05-21T05:29:53.530Z,101178.66
2023-05-21T05:32:26.965Z,101172.81
2023-05-21T05:35:02.241Z,101177.69
2023-05-21T05:37:36.181Z,101182.03
2023-05-21T05:40:11.687Z,101187.09
2023-05-21T05:42:44.948Z,101183.06
2023-05-21T05:45:18.478Z,101182.44
2023-05-21T05:47:51.851Z,101179.44
2023-05-21T05:50:25.285Z,101178.41
2023-05-21T05:52:59.110Z,101185.28
2023-05-21T05:55:32.348Z,101179.41
2023-05-21T05:58:05.605Z,101184.47
2023-05-21T06:00:38.824Z,101186.47
2023-05-21T06:03:12.544Z,101191.38
2023-05-21T06:05:46.154Z,101183.13
2023-05-21T06:08:19.771Z,101191.19
2023-05-21T06:10:53.018Z,101196.91
2023-05-21T06:13:26.349Z,101181.28
2023-05-21T06:15:59.437Z,101185.81
2023-05-21T06:18:33.134Z,101174.56
2023-05-21T06:21:06.614Z,101178.59
2023-05-21T06:23:39.869Z,101183.78
2023-05-21T06:26:13.156Z,101178.75
2023-05-21T06:28:46.383Z,101182.44
2023-05-21T06:31:22.313Z,101184.47
2023-05-21T06:33:56.164Z,101184.63
2023-05-21T06:36:32.360Z,101179.88
2023-05-21T06:39:07.063Z,101180.03
2023-05-21T06:41:40.645Z,101181.03
2023-05-21T06:44:15.633Z,101180.84
2023-05-21T06:46:48.878Z,101178.81
2023-05-21T06:49:22.169Z,101179.59
2023-05-21T06:51:55.460Z,101179.44
2023-05-21T06:54:28.823Z,101181.25
2023-05-21T06:57:02.476Z,101181.75
2023-05-21T06:59:35.968Z,101182.53
2023-05-21T07:02:09.617Z,101175.44
2023-05-21T07:04:43.199Z,101177.44
2023-05-21T07:07:16.570Z,101179.41
2023-05-21T07:09:49.956Z,101179.72
2023-05-21T07:12:23.299Z,101175.13
2023-05-21T07:14:58.753Z,101178.31
2023-05-21T07:17:33.017Z,101173.19
2023-05-21T07:20:07.700Z,101167.13
2023-05-21T07:22:43.044Z,101167.13
2023-05-21T07:25:16.660Z,101166.56
2023-05-21T07:27:50.024Z,101158.59
2023-05-21T07:30:23.496Z,101153.31
2023-05-21T07:32:56.509Z,101159.19
2023-05-21T07:35:30.046Z,101161.19
2023-05-21T07:38:03.853Z,101153.00
2023-05-21T07:40:37.250Z,101155.84
2023-05-21T07:43:10.831Z,101162.19
2023-05-21T07:45:44.476Z,101160.44
2023-05-21T07:48:17.435Z,101169.09
2023-05-21T07:50:52.494Z,101167.34
2023-05-21T07:53:26.051Z,101174.22
2023-05-21T07:56:00.533Z,101166.72
2023-05-21T07:58:35.193Z,101164.88
2023-05-21T08:01:08.899Z,101164.97
2023-05-21T08:03:42.066Z,101156.19
2023-05-21T08:06:15.681Z,101165.50
2023-05-21T08:08:48.996Z,101160.19
2023-05-21T08:11:23.333Z,101161.59
2023-05-21T08:13:56.775Z,101154.41
2023-05-21T08:16:30.198Z,101152.16
2023-05-21T08:19:03.632Z,101153.53
2023-05-21T08:21:37.322Z,101155.66
2023-05-21T08:24:10.635Z,101147.88
2023-05-21T08:26:44.666Z,101157.94
2023-05-21T08:29:18.267Z,101153.44
2023-05-21T08:31:51.633Z,101163.13
2023-05-21T08:34:24.720Z,101167.09
2023-05-21T08:36:58.019Z,101160.25
2023-05-21T08:39:31.300Z,101153.31
2023-05-21T08:42:35.217Z,101156.66
2023-05-21T08:45:12.576Z,101152.97
2023-05-21T08:47:47.717Z,101151.81
2023-05-21T08:50:22.825Z,101157.28
2023-05-21T08:52:58.892Z,101160.25
2023-05-21T08:55:34.987Z,101160.75
2023-05-21T08:58:09.778Z,101152.47
2023-05-21T09:00:43.512Z,101153.75
2023-05-21T09:03:17.518Z,101150.28
2023-05-21T09:05:52.730Z,101151.13
2023-05-21T09:08:36.378Z,101148.66
2023-05-21T09:11:10.094Z,101149.75
2023-05-21T09:13:46.389Z,101154.00
2023-05-21T09:16:20.515Z,101143.38
2023-05-21T09:18:54.344Z,101150.75
2023-05-21T09:21:33.226Z,101144.72
2023-05-21T09:24:07.607Z,101147.47
2023-05-21T09:26:43.328Z,101152.97
2023-05-21T09:29:18.261Z,101152.56
2023-05-21T09:31:54.810Z,101158.88
2023-05-21T09:34:30.909Z,101161.19
2023-05-21T09:37:06.545Z,101151.81
2023-05-21T09:39:48.094Z,101155.78
2023-05-21T09:42:23.651Z,101152.25
2023-05-21T09:44:59.071Z,101150.19
2023-05-21T09:47:32.654Z,101148.53
2023-05-21T09:50:06.178Z,101152.31
2023-05-21T09:52:42.336Z,101162.34
2023-05-21T09:55:22.961Z,101149.59
2023-05-21T09:57:58.951Z,101151.47
2023-05-21T10:00:34.917Z,101150.41
2023-05-21T10:03:16.965Z,101153.31
2023-05-21T10:05:53.223Z,101140.38
2023-05-21T10:08:31.800Z,101147.66
2023-05-21T10:11:06.650Z,101152.88
2023-05-21T10:13:50.105Z,101137.41
2023-05-21T10:16:24.004Z,101135.69
2023-05-21T10:18:58.814Z,101139.84
2023-05-21T10:21:34.765Z,101146.09
2023-05-21T10:24:09.508Z,101137.47
2023-05-21T10:26:45.713Z,101138.66
2023-05-21T10:29:23.826Z,101130.66
2023-05-21T10:31:58.413Z,101140.06
2023-05-21T10:34:34.141Z,101133.09
2023-05-21T10:37:10.757Z,101130.78
2023-05-21T10:39:45.825Z,101125.28
2023-05-21T10:42:48.528Z,101141.25
2023-05-21T10:45:32.799Z,101132.97
2023-05-21T10:48:28.960Z,101128.50
2023-05-21T10:51:26.403Z,101125.91
2023-05-21T10:54:39.802Z,101117.00
2023-05-21T10:57:35.896Z,101122.00
2023-05-21T11:00:13.278Z,101116.88
2023-05-21T11:02:49.350Z,101120.53
2023-05-21T11:05:52.504Z,101114.06
2023-05-21T11:08:31.534Z,101112.97
2023-05-21T11:11:06.076Z,101104.19
2023-05-21T11:13:51.910Z,101102.19
2023-05-21T11:16:31.155Z,101087.56
2023-05-21T11:19:08.011Z,101090.47
2023-05-21T11:21:43.170Z,101091.94
2023-05-21T11:24:25.535Z,101089.13
2023-05-21T11:27:08.722Z,101083.13
2023-05-21T11:29:56.521Z,101080.50
2023-05-21T11:32:30.116Z,101076.13
2023-05-21T11:35:05.567Z,101074.09
2023-05-21T11:37:41.527Z,101078.50
2023-05-21T11:40:30.173Z,101083.38
2023-05-21T11:43:03.911Z,101073.59
2023-05-21T11:45:38.025Z,101079.06
2023-05-21T11:48:16.248Z,101069.38
2023-05-21T11:50:51.528Z,101070.19
2023-05-21T11:53:24.952Z,101077.91
2023-05-21T11:55:59.675Z,101072.13
2023-05-21T11:58:36.234Z,101070.16
2023-05-21T12:01:09.269Z,101074.22
2023-05-21T12:03:42.865Z,101073.97
2023-05-21T12:06:17.377Z,101070.78
2023-05-21T12:08:58.341Z,101071.09
2023-05-21T12:11:32.049Z,101069.19
2023-05-21T12:14:07.688Z,101066.31
2023-05-21T12:16:42.662Z,101067.72
2023-05-21T12:19:18.091Z,101063.63
2023-05-21T12:21:51.448Z,101071.84
2023-05-21T12:24:25.381Z,101066.13
2023-05-21T12:27:01.364Z,101070.19
2023-05-21T12:29:37.016Z,101066.13
2023-05-21T12:32:13.497Z,101066.31
2023-05-21T12:34:49.709Z,101068.44
2023-05-21T12:37:31.215Z,101064.44
2023-05-21T12:40:07.744Z,101060.53
2023-05-21T12:42:42.589Z,101065.50
2023-05-21T12:45:18.777Z,101063.88
2023-05-21T12:47:56.684Z,101055.22
2023-05-21T12:50:30.296Z,101058.53
2023-05-21T12:53:03.822Z,101050.06
2023-05-21T12:55:38.721Z,101054.91
2023-05-21T12:58:17.099Z,101058.41
2023-05-21T13:00:50.481Z,101044.19
2023-05-21T13:03:27.226Z,101048.97
2023-05-21T13:06:06.863Z,101044.06
2023-05-21T13:08:40.741Z,101040.56
2023-05-21T13:11:14.098Z,101037.53
2023-05-21T13:13:47.342Z,101033.72
2023-05-21T13:16:22.082Z,101036.81
2023-05-21T13:18:55.274Z,101030.81
2023-05-21T13:21:28.649Z,101034.19
2023-05-21T13:24:02.027Z,101029.47
2023-05-21T13:26:35.468Z,101022.69
2023-05-21T13:29:09.822Z,101028.28
2023-05-21T13:31:44.108Z,101015.06
2023-05-21T13:34:17.186Z,101017.41
2023-05-21T13:36:51.039Z,101014.84
2023-05-21T13:39:27.550Z,101010.53
2023-05-21T13:42:01.546Z,101012.84
2023-05-21T13:44:36.546Z,101014.53
2023-05-21T13:47:12.068Z,101010.19
2023-05-21T13:49:45.338Z,101011.25
2023-05-21T13:52:18.634Z,101010.13
2023-05-21T13:54:52.014Z,101004.13
2023-05-21T13:57:26.767Z,100997.06
2023-05-21T14:00:00.814Z,100999.34
2023-05-21T14:02:34.621Z,101003.78
2023-05-21T14:05:07.808Z,100999.44
2023-05-21T14:07:41.810Z,100991.19
2023-05-21T14:10:15.749Z,101001.63
2023-05-21T14:12:49.164Z,100996.59
2023-05-21T14:15:22.527Z,100994.38
2023-05-21T14:17:56.042Z,100990.41
2023-05-21T14:20:29.157Z,100986.63
2023-05-21T14:23:02.473Z,100991.03
2023-05-21T14:25:36.074Z,100991.09
2023-05-21T14:28:10.609Z,100991.09
2023-05-21T14:30:43.936Z,100980.59
2023-05-21T14:33:17.432Z,100978.44
2023-05-21T14:35:50.434Z,100980.66
2023-05-21T14:38:23.782Z,100977.81
2023-05-21T14:40:58.557Z,100974.78
2023-05-21T14:43:32.134Z,100973.16
2023-05-21T14:46:05.580Z,100971.25
2023-05-21T14:48:39.254Z,100977.28
2023-05-21T14:51:13.619Z,100982.78
2023-05-21T14:53:46.916Z,100975.59
2023-05-21T14:56:21.854Z,100969.59
2023-05-21T14:58:55.205Z,100975.09
2023-05-21T15:01:28.893Z,100978.44
2023-05-21T15:04:03.485Z,100982.56
2023-05-21T15:06:36.786Z,100961.41
2023-05-21T15:09:10.062Z,100970.78
2023-05-21T15:11:44.564Z,100970.56
2023-05-21T15:14:18.116Z,100964.19
2023-05-21T15:16:51.492Z,100957.81
2023-05-21T15:19:25.406Z,100966.81
2023-05-21T15:21:58.973Z,100958.00
2023-05-21T15:24:32.283Z,100963.25
2023-05-21T15:27:05.680Z,100958.59
2023-05-21T15:29:39.329Z,100960.81
2023-05-21T15:32:13.065Z,100962.16
2023-05-21T15:34:46.558Z,100954.16
2023-05-21T15:37:20.082Z,100951.69
2023-05-21T15:39:54.033Z,100954.16
2023-05-21T15:42:31.085Z,100948.97
2023-05-21T15:45:04.661Z,100946.28
2023-05-21T15:47:42.717Z,100954.75
2023-05-21T15:50:17.356Z,100942.34
2023-05-21T15:52:52.371Z,100941.25
2023-05-21T15:55:26.916Z,100943.47
2023-05-21T15:58:02.219Z,100942.41
2023-05-21T16:00:37.755Z,100942.16
2023-05-21T16:03:11.900Z,100932.31
2023-05-21T16:05:45.540Z,100934.97
2023-05-21T16:08:18.580Z,100934.41
2023-05-21T16:10:51.911Z,100941.38
2023-05-21T16:13:25.222Z,100938.13
2023-05-21T16:15:58.589Z,100936.78
2023-05-21T16:18:31.974Z,100935.44
2023-05-21T16:21:05.419Z,100930.47
2023-05-21T16:23:38.860Z,100928.53
2023-05-21T16:26:13.965Z,100932.97
2023-05-21T16:28:47.300Z,100924.66
2023-05-21T16:31:20.663Z,100919.22
2023-05-21T16:33:54.026Z,100924.66
2023-05-21T16:36:27.476Z,100916.41
2023-05-21T16:39:00.659Z,100924.06
2023-05-21T16:41:34.619Z,100923.00
2023-05-21T16:44:07.882Z,100924.66
2023-05-21T16:46:41.264Z,100912.59
2023-05-21T16:49:14.886Z,100924.13
2023-05-21T16:51:48.287Z,100919.69
2023-05-21T16:54:21.703Z,100920.78
2023-05-21T16:56:55.254Z,100922.44
2023-05-21T16:59:28.561Z,100917.56
2023-05-21T17:02:02.318Z,100916.72
2023-05-21T17:04:36.092Z,100912.88
2023-05-21T17:07:10.769Z,100917.50
2023-05-21T17:09:43.756Z,100912.53
2023-05-21T17:12:17.054Z,100915.81
2023-05-21T17:14:50.362Z,100922.44
2023-05-21T17:17:23.811Z,100929.31
2023-05-21T17:19:57.541Z,100922.47
2023-05-21T17:22:30.938Z,100915.03
2023-05-21T17:25:04.213Z,100918.63
2023-05-21T17:27:37.843Z,100910.31
2023-05-21T17:30:14.642Z,100921.84
2023-05-21T17:32:47.970Z,100913.84
2023-05-21T17:35:21.707Z,100912.16
2023-05-21T17:37:55.236Z,100920.38
2023-05-21T17:40:28.199Z,100916.75
2023-05-21T17:43:01.464Z,100918.38
2023-05-21T17:45:35.170Z,100910.13
2023-05-21T17:48:09.910Z,100907.56
2023-05-21T17:50:43.334Z,100904.50
2023-05-21T17:53:17.655Z,100908.59
2023-05-21T17:55:50.923Z,100901.97
2023-05-21T17:58:24.328Z,100912.09
2023-05-21T18:00:57.625Z,100912.84
2023-05-21T18:03:31.211Z,100905.69
2023-05-21T18:06:05.038Z,100914.44
2023-05-21T18:08:38.489Z,100914.66
2023-05-21T18:11:11.509Z,100903.31
2023-05-21T18:13:44.803Z,100907.94
2023-05-21T18:16:18.196Z,100907.31
2023-05-21T18:18:51.836Z,100910.81
2023-05-21T18:21:26.145Z,100913.50
2023-05-21T18:23:59.518Z,100909.88
2023-05-21T18:26:32.515Z,100914.75
2023-05-21T18:29:05.850Z,100908.34
2023-05-21T18:31:39.217Z,100912.97
2023-05-21T18:34:12.975Z,100921.94
2023-05-21T18:36:46.649Z,100917.72
2023-05-21T18:39:24.447Z,100917.94
2023-05-21T18:44:33.852Z,100915.00
2023-05-21T18:47:07.559Z,100917.91
2023-05-21T18:49:41.201Z,100918.91
2023-05-21T18:52:14.616Z,100917.25
2023-05-21T18:54:47.994Z,100916.47
2023-05-21T18:57:21.064Z,100912.63
2023-05-21T18:59:54.409Z,100918.81
2023-05-21T19:02:29.680Z,100921.41
2023-05-21T19:05:03.146Z,100929.78
2023-05-21T19:07:37.140Z,100932.47
2023-05-21T19:10:14.124Z,100930.13
2023-05-21T19:12:47.700Z,100928.78
2023-05-21T19:15:22.147Z,100939.16
2023-05-21T19:17:55.628Z,100929.66
2023-05-21T19:20:30.388Z,100929.34
2023-05-21T19:23:04.367Z,100940.38
2023-05-21T19:25:38.292Z,100932.56
2023-05-21T19:28:12.049Z,100925.41
2023-05-21T19:30:45.407Z,100929.75
2023-05-21T19:33:18.847Z,100932.75
2023-05-21T19:35:52.812Z,100935.47
2023-05-21T19:38:26.359Z,100942.56
2023-05-21T19:40:59.633Z,100946.13
2023-05-21T19:43:32.658Z,100938.91
2023-05-21T19:46:06.402Z,100940.09
2023-05-21T19:48:40.101Z,100939.28
2023-05-21T19:51:14.287Z,100943.25
2023-05-21T19:53:47.562Z,100947.69
2023-05-21T19:56:21.840Z,100945.78
2023-05-21T19:58:54.843Z,100951.13
2023-05-21T20:01:28.986Z,100942.81
2023-05-21T20:04:02.516Z,100947.09
2023-05-21T20:06:36.271Z,100946.75
2023-05-21T20:09:10.801Z,100946.84
2023-05-21T20:11:44.775Z,100947.91
2023-05-21T20:14:18.540Z,100953.59
2023-05-21T20:16:53.547Z,100947.91
2023-05-21T20:19:26.941Z,100948.63
2023-05-21T20:22:00.725Z,100959.44
2023-05-21T20:24:34.125Z,100952.22
2023-05-21T20:27:07.418Z,100959.78
2023-05-21T20:29:42.817Z,100959.44
2023-05-21T20:32:16.195Z,100959.66
2023-05-21T20:35:02.334Z,100956.25
2023-05-21T20:37:37.196Z,100956.34
2023-05-21T20:40:14.859Z,100959.09
2023-05-21T20:42:50.241Z,100957.63
2023-05-21T20:45:23.500Z,100964.75
2023-05-21T20:47:56.891Z,100957.66
2023-05-21T20:50:30.215Z,100962.97
2023-05-21T20:53:03.594Z,100964.28
2023-05-21T20:55:37.096Z,100959.13
2023-05-21T20:58:10.657Z,100963.53
2023-05-21T21:00:44.880Z,100959.00
2023-05-21T21:03:18.802Z,100969.19
2023-05-21T21:05:52.902Z,100971.28
2023-05-21T21:08:26.513Z,100967.81
2023-05-21T21:10:59.957Z,100969.13
2023-05-21T21:13:33.309Z,100965.44
2023-05-21T21:16:06.853Z,100973.25
2023-05-21T21:18:40.404Z,100970.25
2023-05-21T21:21:13.701Z,100973.44
2023-05-21T21:23:47.098Z,100968.47
2023-05-21T21:26:22.004Z,100976.03
2023-05-21T21:28:56.353Z,100961.81
2023-05-21T21:31:29.991Z,100964.38
2023-05-21T21:34:03.481Z,100964.84
2023-05-21T21:36:44.246Z,100968.88
2023-05-21T21:39:17.964Z,100976.28
2023-05-21T21:41:51.236Z,100968.78
2023-05-21T21:44:24.530Z,100963.19
2023-05-21T21:46:57.764Z,100972.25
2023-05-21T21:49:31.182Z,100964.31
2023-05-21T21:52:04.743Z,100962.50
2023-05-21T21:54:37.999Z,100962.72
2023-05-21T21:57:11.271Z,100966.50
2023-05-21T21:59:44.574Z,100967.13
2023-05-21T22:02:18.263Z,100965.06
2023-05-21T22:04:51.988Z,100972.25
2023-05-21T22:07:25.660Z,100973.94
2023-05-21T22:09:58.901Z,100969.31
2023-05-21T22:12:33.671Z,100967.09
2023-05-21T22:15:07.938Z,100962.28
2023-05-21T22:17:41.125Z,100961.50
2023-05-21T22:20:17.479Z,100961.56
2023-05-21T22:22:52.383Z,100958.28
2023-05-21T22:25:27.264Z,100962.09
2023-05-21T22:28:00.647Z,100955.41
2023-05-21T22:30:33.955Z,100956.69
2023-05-21T22:33:07.229Z,100954.16
2023-05-21T22:35:40.788Z,100951.72
2023-05-21T22:38:14.115Z,100959.28
2023-05-21T22:40:47.543Z,100951.19
2023-05-21T22:43:20.966Z,100954.09
2023-05-21T22:45:54.185Z,100956.50
2023-05-21T22:48:30.476Z,100949.81
2023-05-21T22:51:04.515Z,100948.19
2023-05-21T22:53:38.798Z,100953.00
2023-05-21T22:56:12.223Z,100951.16
2023-05-21T22:58:45.803Z,100954.53
2023-05-21T23:01:19.237Z,100947.06
2023-05-21T23:03:52.489Z,100953.41
2023-05-21T23:06:25.799Z,100951.72
2023-05-21T23:08:59.058Z,100949.44
2023-05-21T23:11:32.591Z,100952.41
2023-05-21T23:14:06.075Z,100953.75
2023-05-21T23:16:43.741Z,100959.19
2023-05-21T23:19:18.020Z,100959.19
2023-05-21T23:21:52.760Z,100966.50
2023-05-21T23:24:26.413Z,100960.44
2023-05-21T23:27:02.792Z,100960.91
2023-05-21T23:29:36.093Z,100956.75
2023-05-21T23:32:10.570Z,100955.09
2023-05-21T23:34:44.693Z,100952.63
2023-05-21T23:37:18.329Z,100957.41
2023-05-21T23:39:51.896Z,100953.25
2023-05-21T23:42:25.582Z,100951.19
2023-05-21T23:44:58.851Z,100949.94
2023-05-21T23:47:32.117Z,100949.34
2023-05-21T23:50:05.484Z,100949.13
2023-05-21T23:52:38.910Z,100940.38
2023-05-21T23:55:14.911Z,100949.38
2023-05-21T23:57:48.572Z,100940.22
